Time;durP1;ratioP1;P1;durP2;ratioP2;P2;SDS_P1;SDS_P2;PMS_P1;PMS_P2;Temp;Humidity;BMP_temperature;BMP_pressure;BME280_temperature;BME280_humidity;BME280_pressure;Samples;Min_cycle;Max_cycle;Signal;HPM_P1;HPM_P2
2021/10/18 00:02:53;;;;;;;8.18;3.75;;;15.30;57.60;;;;;;6224747;28;20116;-71
2021/10/18 00:05:53;;;;;;;8.88;4.15;;;15.30;57.60;;;;;;6241342;28;20050;-71
2021/10/18 00:08:54;;;;;;;8.52;4.20;;;15.20;57.70;;;;;;6224537;28;20111;-71
2021/10/18 00:11:55;;;;;;;8.57;4.63;;;15.20;57.70;;;;;;6224876;28;20099;-71
2021/10/18 00:14:56;;;;;;;8.57;4.47;;;15.20;57.90;;;;;;6208450;28;20462;-71
2021/10/18 00:17:59;;;;;;;7.75;4.40;;;15.20;58.00;;;;;;6224268;28;20046;-71
2021/10/18 00:21:00;;;;;;;7.25;3.97;;;15.10;58.20;;;;;;6225287;28;20375;-72
2021/10/18 00:24:01;;;;;;;9.40;4.60;;;15.10;58.50;;;;;;6240580;28;20033;-71
2021/10/18 00:27:02;;;;;;;9.52;4.53;;;15.10;58.80;;;;;;6225565;28;20375;-73
2021/10/18 00:30:05;;;;;;;8.95;4.63;;;15.00;59.00;;;;;;6224073;28;20049;-71
2021/10/18 00:33:05;;;;;;;10.63;4.93;;;15.00;59.30;;;;;;6224834;28;20431;-71
2021/10/18 00:36:06;;;;;;;14.43;4.80;;;15.00;59.40;;;;;;6225264;28;20042;-72
2021/10/18 00:39:07;;;;;;;10.02;4.28;;;14.90;59.50;;;;;;6223963;28;20060;-72
2021/10/18 00:42:08;;;;;;;6.65;4.10;;;14.90;59.70;;;;;;6225033;28;20046;-72
2021/10/18 00:45:10;;;;;;;8.98;4.18;;;14.90;59.80;;;;;;6224046;28;20033;-72
2021/10/18 00:48:11;;;;;;;8.48;3.97;;;14.90;59.90;;;;;;6224442;28;20092;-72
2021/10/18 00:51:12;;;;;;;8.57;4.35;;;14.80;59.90;;;;;;6226883;28;20042;-72
2021/10/18 00:54:13;;;;;;;11.23;4.35;;;14.80;60.00;;;;;;6214467;28;20038;-72
2021/10/18 00:57:15;;;;;;;11.27;4.43;;;14.80;60.20;;;;;;6223675;28;20042;-72
2021/10/18 01:00:16;;;;;;;9.43;3.90;;;14.80;60.30;;;;;;6225138;28;20070;-71
2021/10/18 01:03:19;;;;;;;10.77;4.22;;;14.80;60.30;;;;;;6224660;28;20044;-72
2021/10/18 01:06:21;;;;;;;10.82;4.68;;;14.80;60.40;;;;;;6224692;28;20038;-72
2021/10/18 01:09:22;;;;;;;13.63;4.55;;;14.80;60.40;;;;;;6240200;28;20514;-72
2021/10/18 01:12:23;;;;;;;8.95;5.13;;;14.70;60.40;;;;;;6224135;28;20040;-72
2021/10/18 01:15:24;;;;;;;8.68;4.15;;;14.70;60.50;;;;;;6223305;28;20503;-72
2021/10/18 01:18:24;;;;;;;9.25;4.65;;;14.70;60.70;;;;;;6222058;28;20105;-72
2021/10/18 01:21:25;;;;;;;11.20;5.75;;;14.70;61.00;;;;;;6210503;28;20034;-72
2021/10/18 01:24:26;;;;;;;8.63;4.97;;;14.60;61.20;;;;;;6220746;28;20502;-72
2021/10/18 01:27:27;;;;;;;8.93;4.70;;;14.50;61.50;;;;;;6224353;28;20061;-72
2021/10/18 01:30:29;;;;;;;8.02;4.75;;;14.50;61.70;;;;;;6222678;28;20057;-71
2021/10/18 01:33:30;;;;;;;9.73;4.90;;;14.50;61.90;;;;;;6224077;28;20048;-72
2021/10/18 01:36:31;;;;;;;8.80;4.57;;;14.50;62.00;;;;;;6224237;28;20053;-72
2021/10/18 01:39:33;;;;;;;8.80;4.40;;;14.40;62.90;;;;;;6223987;28;20050;-72
2021/10/18 01:42:34;;;;;;;8.25;4.47;;;14.40;62.30;;;;;;6224217;28;20038;-72
2021/10/18 01:45:35;;;;;;;11.40;4.80;;;14.40;62.30;;;;;;6221881;28;20065;-72
2021/10/18 01:48:36;;;;;;;10.30;5.40;;;14.40;62.30;;;;;;6224200;28;20045;-72
2021/10/18 01:51:37;;;;;;;10.77;4.10;;;14.40;62.50;;;;;;6225486;28;20379;-72
2021/10/18 01:54:38;;;;;;;11.05;5.00;;;14.40;62.30;;;;;;6205585;28;20033;-72
2021/10/18 01:57:39;;;;;;;10.63;4.68;;;14.30;62.40;;;;;;6223604;28;20125;-72
2021/10/18 02:00:42;;;;;;;7.78;4.43;;;14.30;62.60;;;;;;6224153;28;20058;-72
2021/10/18 02:03:43;;;;;;;7.90;4.18;;;14.20;62.80;;;;;;6223952;28;20518;-72
2021/10/18 02:06:44;;;;;;;10.80;5.18;;;14.20;62.80;;;;;;6224103;28;20107;-72
2021/10/18 02:09:44;;;;;;;7.25;4.45;;;14.20;63.00;;;;;;6238720;28;20129;-72
2021/10/18 02:12:45;;;;;;;11.50;5.00;;;14.20;63.10;;;;;;6223873;28;20038;-72
2021/10/18 02:15:46;;;;;;;10.85;5.05;;;14.10;63.10;;;;;;6223777;28;20103;-72
2021/10/18 02:18:47;;;;;;;12.27;4.93;;;14.10;63.20;;;;;;6223146;28;20038;-71
2021/10/18 02:21:48;;;;;;;10.95;4.93;;;14.10;63.30;;;;;;6226488;28;20037;-72
2021/10/18 02:24:49;;;;;;;9.40;4.78;;;14.10;63.40;;;;;;6225941;28;20030;-72
2021/10/18 02:27:50;;;;;;;9.60;5.22;;;14.10;63.40;;;;;;6228584;28;20421;-72
2021/10/18 02:30:51;;;;;;;10.38;5.35;;;14.00;63.30;;;;;;6227212;28;20096;-72
2021/10/18 02:33:51;;;;;;;8.32;4.45;;;14.10;63.40;;;;;;6227230;28;20114;-72
2021/10/18 02:36:52;;;;;;;7.05;4.45;;;14.10;63.40;;;;;;6226788;28;20038;-72
2021/10/18 02:39:53;;;;;;;11.07;4.90;;;14.00;63.40;;;;;;6226927;28;20054;-72
2021/10/18 02:42:54;;;;;;;12.48;5.22;;;14.00;64.10;;;;;;6202340;28;20053;-72
2021/10/18 02:45:55;;;;;;;8.73;4.47;;;14.00;63.60;;;;;;6227892;28;20046;-72
2021/10/18 02:48:56;;;;;;;10.77;4.97;;;14.10;63.80;;;;;;6227197;28;20048;-71
2021/10/18 02:51:57;;;;;;;10.73;5.85;;;14.00;63.50;;;;;;6233933;28;20042;-72
2021/10/18 02:54:58;;;;;;;13.27;5.10;;;14.00;63.50;;;;;;6225870;28;20034;-72
2021/10/18 02:57:59;;;;;;;8.63;4.43;;;14.00;63.50;;;;;;6217466;28;20466;-72
2021/10/18 03:01:00;;;;;;;10.93;5.28;;;14.00;63.50;;;;;;6227570;28;20042;-72
2021/10/18 03:04:01;;;;;;;10.95;4.95;;;14.00;63.60;;;;;;6226608;28;20041;-72
2021/10/18 03:07:01;;;;;;;11.55;4.82;;;13.90;63.60;;;;;;6227277;28;20038;-71
2021/10/18 03:10:03;;;;;;;9.40;4.05;;;13.80;63.60;;;;;;6227241;28;20046;-71
2021/10/18 03:13:04;;;;;;;10.70;4.35;;;13.80;63.90;;;;;;6227710;28;20164;-72
2021/10/18 03:16:05;;;;;;;11.93;5.38;;;13.70;64.00;;;;;;6227131;28;20046;-72
2021/10/18 03:19:06;;;;;;;9.00;4.70;;;13.70;64.20;;;;;;6226262;28;20052;-72
2021/10/18 03:22:06;;;;;;;9.00;4.95;;;13.60;64.40;;;;;;6226041;28;20038;-72
2021/10/18 03:25:09;;;;;;;11.13;5.35;;;13.50;64.60;;;;;;6225970;28;20034;-72
2021/10/18 03:28:09;;;;;;;8.52;4.20;;;13.50;64.80;;;;;;6227164;28;20034;-72
2021/10/18 03:31:11;;;;;;;10.63;4.85;;;13.50;64.80;;;;;;6209626;28;20092;-72
2021/10/18 03:34:13;;;;;;;11.18;5.05;;;13.50;64.90;;;;;;6225580;28;20459;-72
2021/10/18 03:37:14;;;;;;;6.78;4.40;;;13.50;64.80;;;;;;6226928;28;20042;-72
2021/10/18 03:40:15;;;;;;;10.10;4.75;;;13.50;64.80;;;;;;6226035;28;20092;-73
2021/10/18 03:43:17;;;;;;;8.20;4.10;;;13.60;64.80;;;;;;6225708;28;20064;-72
2021/10/18 03:46:18;;;;;;;7.22;4.03;;;13.60;64.70;;;;;;6209099;28;20396;-72
2021/10/18 03:49:19;;;;;;;13.15;4.45;;;13.60;64.50;;;;;;6226499;28;20034;-72
2021/10/18 03:52:22;;;;;;;8.55;3.65;;;13.70;64.60;;;;;;6230424;28;20030;-72
2021/10/18 03:55:23;;;;;;;8.13;4.47;;;13.60;64.50;;;;;;6226079;28;20052;-72
2021/10/18 03:58:24;;;;;;;12.75;5.15;;;13.60;64.50;;;;;;6226415;28;20125;-72
2021/10/18 04:01:25;;;;;;;10.63;4.18;;;13.60;64.60;;;;;;6226192;28;20041;-73
2021/10/18 04:04:26;;;;;;;6.30;3.92;;;13.50;64.60;;;;;;6226047;28;20038;-72
2021/10/18 04:07:27;;;;;;;7.57;4.38;;;13.50;64.60;;;;;;6224530;28;20030;-72
2021/10/18 04:10:32;;;;;;;10.25;4.30;;;13.50;64.60;;;;;;6225138;28;20034;-72
2021/10/18 04:13:33;;;;;;;11.50;4.40;;;13.50;64.60;;;;;;6226098;28;20042;-72
2021/10/18 04:16:34;;;;;;;9.82;4.13;;;13.60;64.60;;;;;;6225664;28;20486;-71
2021/10/18 04:19:35;;;;;;;11.52;4.57;;;13.50;64.60;;;;;;6226592;28;20038;-71
2021/10/18 04:22:36;;;;;;;7.68;3.92;;;13.50;64.60;;;;;;6224953;28;20050;-72
2021/10/18 04:25:37;;;;;;;8.45;4.07;;;13.50;64.70;;;;;;6224674;28;20097;-71
2021/10/18 04:28:38;;;;;;;8.60;3.67;;;13.40;64.70;;;;;;6225543;28;20038;-72
2021/10/18 04:31:39;;;;;;;8.27;3.92;;;13.40;64.90;;;;;;6225461;28;20056;-71
2021/10/18 04:34:40;;;;;;;10.95;4.35;;;13.30;64.90;;;;;;6224592;28;20048;-72
2021/10/18 04:37:41;;;;;;;13.18;3.83;;;13.30;64.90;;;;;;6223974;28;20054;-71
2021/10/18 04:40:42;;;;;;;7.28;4.30;;;13.30;65.00;;;;;;6225539;28;20037;-72
2021/10/18 04:43:42;;;;;;;7.90;4.72;;;13.30;65.00;;;;;;6213506;28;20398;-73
2021/10/18 04:46:43;;;;;;;7.72;4.50;;;13.30;65.00;;;;;;6223456;28;20058;-71
2021/10/18 04:49:44;;;;;;;11.55;4.88;;;13.20;65.00;;;;;;6226813;28;20037;-72
2021/10/18 04:52:46;;;;;;;9.13;5.00;;;13.20;65.00;;;;;;6224041;28;20029;-72
2021/10/18 04:55:47;;;;;;;7.35;4.10;;;13.20;65.20;;;;;;6223735;28;20474;-72
2021/10/18 04:58:48;;;;;;;8.48;4.00;;;13.10;65.30;;;;;;6223820;28;20034;-72
2021/10/18 05:01:49;;;;;;;13.18;4.53;;;13.10;65.40;;;;;;6224126;28;20046;-72
2021/10/18 05:04:49;;;;;;;13.88;4.55;;;13.00;65.50;;;;;;6223669;28;20045;-72
2021/10/18 05:08:05;;;;;;;9.20;4.00;;;13.00;65.60;;;;;;6239784;28;20058;-72
2021/10/18 05:11:05;;;;;;;8.05;4.13;;;13.00;65.70;;;;;;6223309;28;20053;-72
2021/10/18 05:14:06;;;;;;;6.00;3.55;;;12.90;65.70;;;;;;6223791;28;20482;-72
2021/10/18 05:17:07;;;;;;;9.90;4.18;;;12.90;65.90;;;;;;6223491;28;20056;-72
2021/10/18 05:20:08;;;;;;;8.48;4.35;;;12.90;66.00;;;;;;6228092;28;20041;-72
2021/10/18 05:23:09;;;;;;;8.98;4.35;;;12.90;66.10;;;;;;6219273;28;20034;-72
2021/10/18 05:26:10;;;;;;;9.10;4.30;;;12.90;66.00;;;;;;6218335;28;20038;-72
2021/10/18 05:29:11;;;;;;;8.18;4.00;;;12.90;65.90;;;;;;6221845;28;20045;-72
2021/10/18 05:32:12;;;;;;;6.32;3.50;;;12.90;65.90;;;;;;6221655;28;20030;-72
2021/10/18 05:35:13;;;;;;;7.38;3.78;;;12.90;65.70;;;;;;6221918;28;20379;-72
2021/10/18 05:38:18;;;;;;;8.68;3.70;;;12.90;65.70;;;;;;6237711;28;20060;-72
2021/10/18 05:41:19;;;;;;;6.95;3.58;;;12.90;65.70;;;;;;6222700;28;20063;-72
2021/10/18 05:44:21;;;;;;;12.88;4.72;;;12.90;65.70;;;;;;6222675;28;20108;-72
2021/10/18 05:47:22;;;;;;;8.50;4.18;;;12.90;65.70;;;;;;6238062;28;20113;-72
2021/10/18 05:50:26;;;;;;;11.35;4.55;;;12.90;65.70;;;;;;6238588;28;20030;-72
2021/10/18 05:53:27;;;;;;;9.50;4.70;;;12.90;65.70;;;;;;6220958;28;20041;-72
2021/10/18 05:56:27;;;;;;;9.50;4.78;;;12.90;65.70;;;;;;6221382;28;20070;-72
2021/10/18 05:59:28;;;;;;;13.55;4.75;;;12.90;65.60;;;;;;6225501;28;20044;-72
2021/10/18 06:02:29;;;;;;;6.50;4.13;;;12.90;65.60;;;;;;6226334;28;20026;-72
2021/10/18 06:05:30;;;;;;;17.92;4.55;;;13.00;65.50;;;;;;6226553;28;20054;-72
2021/10/18 06:08:31;;;;;;;11.25;4.35;;;13.00;65.40;;;;;;6227332;28;20045;-71
2021/10/18 06:11:33;;;;;;;7.85;4.28;;;13.00;65.60;;;;;;6226440;28;20029;-71
2021/10/18 06:14:34;;;;;;;8.93;4.50;;;13.00;65.60;;;;;;6242480;28;20087;-71
2021/10/18 06:17:36;;;;;;;13.15;4.88;;;12.90;65.50;;;;;;6226064;28;20045;-71
2021/10/18 06:20:37;;;;;;;12.38;4.35;;;12.90;65.60;;;;;;6229303;28;20485;-73
2021/10/18 06:23:38;;;;;;;7.25;3.78;;;12.90;65.60;;;;;;6226108;28;20092;-71
2021/10/18 06:26:38;;;;;;;7.97;4.05;;;12.90;65.70;;;;;;6225355;28;20411;-71
2021/10/18 06:29:39;;;;;;;8.93;4.03;;;12.90;65.70;;;;;;6209325;28;20070;-73
2021/10/18 06:32:41;;;;;;;8.57;4.18;;;12.90;65.70;;;;;;6224704;28;20042;-72
2021/10/18 06:35:42;;;;;;;11.60;4.93;;;12.80;65.80;;;;;;6224763;28;20069;-72
2021/10/18 06:38:42;;;;;;;9.00;4.30;;;12.90;65.80;;;;;;6225191;28;20513;-72
2021/10/18 06:41:43;;;;;;;8.00;3.97;;;12.90;65.80;;;;;;6225215;28;20364;-72
2021/10/18 06:44:44;;;;;;;10.10;4.90;;;12.90;65.80;;;;;;6225261;28;20133;-71
2021/10/18 06:47:45;;;;;;;8.05;4.05;;;12.90;65.80;;;;;;6226318;28;20061;-72
2021/10/18 06:50:47;;;;;;;11.70;4.07;;;12.90;65.70;;;;;;6230922;28;20492;-73
2021/10/18 06:53:53;;;;;;;8.02;3.88;;;13.00;65.60;;;;;;6224707;28;20034;-71
2021/10/18 06:56:54;;;;;;;11.05;3.92;;;13.00;65.60;;;;;;6241813;28;20045;-73
2021/10/18 06:59:54;;;;;;;8.25;4.43;;;13.00;65.40;;;;;;6226109;28;20371;-72
2021/10/18 07:02:55;;;;;;;9.85;3.78;;;13.00;65.20;;;;;;6226112;28;20053;-71
2021/10/18 07:05:56;;;;;;;7.78;4.40;;;13.10;65.00;;;;;;6224969;28;20034;-72
2021/10/18 07:08:57;;;;;;;11.10;4.35;;;13.10;64.70;;;;;;6224091;28;20057;-72
2021/10/18 07:11:58;;;;;;;10.27;4.38;;;13.20;64.80;;;;;;6224389;28;20099;-72
2021/10/18 07:15:00;;;;;;;8.23;4.47;;;13.20;64.70;;;;;;6225407;28;20045;-72
2021/10/18 07:18:01;;;;;;;8.32;4.68;;;13.30;64.60;;;;;;6208505;28;20367;-72
2021/10/18 07:21:02;;;;;;;7.65;4.22;;;13.40;64.40;;;;;;6226278;28;20041;-72
2021/10/18 07:24:05;;;;;;;8.63;4.30;;;13.40;64.30;;;;;;6225288;28;20127;-72
2021/10/18 07:27:06;;;;;;;11.25;5.35;;;13.40;64.20;;;;;;6221116;28;20034;-72
2021/10/18 07:30:07;;;;;;;10.52;5.80;;;13.50;64.30;;;;;;6224971;28;20367;-72
2021/10/18 07:33:08;;;;;;;9.02;4.95;;;13.50;64.40;;;;;;6223691;28;20049;-72
2021/10/18 07:36:11;;;;;;;9.57;5.13;;;13.50;64.40;;;;;;6224187;28;20046;-72
2021/10/18 07:39:13;;;;;;;13.48;5.00;;;13.60;64.40;;;;;;6224451;28;20387;-72
2021/10/18 07:42:14;;;;;;;9.23;4.55;;;13.60;64.20;;;;;;6223724;28;20049;-72
2021/10/18 07:45:15;;;;;;;10.95;4.78;;;13.70;64.10;;;;;;6225182;28;20041;-72
2021/10/18 07:48:16;;;;;;;13.20;4.55;;;13.70;64.00;;;;;;6225089;28;20029;-72
2021/10/18 07:51:17;;;;;;;10.80;4.28;;;13.80;63.90;;;;;;6227725;28;20073;-72
2021/10/18 07:54:18;;;;;;;10.40;4.55;;;13.80;63.80;;;;;;6223280;28;20088;-72
2021/10/18 07:57:19;;;;;;;10.05;4.57;;;13.90;63.60;;;;;;6223474;28;20049;-73
2021/10/18 08:00:21;;;;;;;13.93;5.00;;;13.90;63.30;;;;;;6225242;28;20101;-72
2021/10/18 08:03:22;;;;;;;9.30;4.70;;;14.00;63.40;;;;;;6224444;28;20038;-72
2021/10/18 08:06:23;;;;;;;10.55;5.47;;;14.10;63.30;;;;;;6240112;28;20454;-72
2021/10/18 08:09:26;;;;;;;12.40;5.63;;;14.20;63.10;;;;;;6205675;28;20041;-72
2021/10/18 08:12:27;;;;;;;13.68;6.18;;;14.30;62.90;;;;;;6223400;28;20121;-72
2021/10/18 08:15:34;;;;;;;12.85;6.03;;;14.40;62.60;;;;;;6223587;28;20103;-72
2021/10/18 08:18:37;;;;;;;11.17;5.73;;;14.50;62.30;;;;;;6223170;28;20030;-71
2021/10/18 08:21:38;;;;;;;10.57;5.10;;;14.50;62.20;;;;;;6228383;28;20045;-72
2021/10/18 08:24:39;;;;;;;11.00;5.10;;;14.60;62.00;;;;;;6222615;28;20352;-71
2021/10/18 08:27:40;;;;;;;9.20;4.75;;;14.80;61.80;;;;;;6222134;28;20447;-72
2021/10/18 08:30:41;;;;;;;11.13;5.30;;;14.90;61.70;;;;;;6222719;28;20042;-71
2021/10/18 08:33:43;;;;;;;12.50;7.20;;;15.00;61.40;;;;;;6224187;28;20053;-71
2021/10/18 08:36:43;;;;;;;21.40;9.38;;;15.20;61.10;;;;;;6222980;28;20042;-72
2021/10/18 08:40:03;;;;;;;10.02;6.07;;;15.30;60.80;;;;;;6222561;28;20050;-73
2021/10/18 08:46:22;;;;;;;8.73;4.78;;;15.50;59.90;;;;;;6223314;28;20030;-72
2021/10/18 08:49:23;;;;;;;18.30;7.38;;;15.60;59.70;;;;;;6224143;28;20034;-72
2021/10/18 08:52:24;;;;;;;10.27;4.95;;;15.70;59.60;;;;;;6225738;28;20490;-72
2021/10/18 08:55:24;;;;;;;12.18;6.60;;;15.80;59.50;;;;;;6223076;28;20041;-72
2021/10/18 08:58:25;;;;;;;11.82;5.53;;;15.90;59.10;;;;;;6223617;28;20038;-72
2021/10/18 09:01:58;;;;;;;15.18;5.97;;;15.90;58.90;;;;;;6223352;28;20034;-72
2021/10/18 09:04:59;;;;;;;17.83;5.68;;;16.00;59.40;;;;;;6213058;28;20069;-72
2021/10/18 09:08:00;;;;;;;13.23;5.32;;;16.10;58.40;;;;;;6218838;28;20042;-72
2021/10/18 09:11:13;;;;;;;41.75;19.13;;;16.10;58.30;;;;;;6219128;28;20088;-72
2021/10/18 09:14:15;;;;;;;10.35;5.40;;;16.10;58.40;;;;;;6218987;28;20050;-72
2021/10/18 09:17:33;;;;;;;7.70;4.60;;;16.20;58.40;;;;;;6219604;28;20121;-72
2021/10/18 09:20:36;;;;;;;10.52;4.97;;;16.30;58.20;;;;;;6196218;28;20049;-72
2021/10/18 09:23:40;;;;;;;22.08;9.05;;;16.30;58.10;;;;;;6219373;28;20489;-72
2021/10/18 09:26:42;;;;;;;18.55;7.82;;;16.50;58.00;;;;;;6219053;28;20426;-73
2021/10/18 09:29:46;;;;;;;8.80;4.38;;;16.60;57.90;;;;;;6216476;28;20037;-73
2021/10/18 09:32:53;;;;;;;15.07;6.43;;;16.70;57.60;;;;;;6186839;28;20042;-71
2021/10/18 09:35:54;;;;;;;7.30;3.80;;;16.80;57.40;;;;;;6202704;28;20034;-72
2021/10/18 09:39:11;;;;;;;14.38;6.53;;;16.90;57.20;;;;;;6200770;28;20041;-72
2021/10/18 09:42:14;;;;;;;10.25;5.60;;;17.00;56.80;;;;;;6219207;28;20022;-73
2021/10/18 10:52:40;;;;;;;11.65;5.78;;;21.20;45.00;;;;;;6227741;28;20099;-74
2021/10/18 10:55:41;;;;;;;7.50;3.63;;;21.40;43.40;;;;;;6216597;28;20052;-72
2021/10/18 10:58:53;;;;;;;9.70;3.92;;;21.60;43.40;;;;;;6220814;28;20053;-71
2021/10/18 11:01:56;;;;;;;11.15;3.60;;;21.80;43.00;;;;;;6222278;28;20414;-73
2021/10/18 11:04:57;;;;;;;7.63;4.10;;;22.10;42.80;;;;;;6221631;28;20045;-73
2021/10/18 11:07:58;;;;;;;6.43;2.85;;;22.30;41.80;;;;;;6222674;28;20041;-73
2021/10/18 11:11:09;;;;;;;7.93;4.28;;;22.50;41.10;;;;;;6222051;28;20131;-73
2021/10/18 11:14:11;;;;;;;7.40;2.45;;;22.70;40.70;;;;;;6222391;28;20454;-72
2021/10/18 11:17:15;;;;;;;4.15;2.15;;;23.10;39.90;;;;;;6212101;28;20038;-72
2021/10/18 11:20:23;;;;;;;3.53;1.88;;;23.40;39.10;;;;;;6238538;28;20129;-73
2021/10/18 11:23:23;;;;;;;4.72;2.28;;;23.80;37.80;;;;;;6221905;28;20034;-71
2021/10/18 11:26:27;;;;;;;3.03;1.73;;;24.10;37.80;;;;;;6221330;28;20513;-73
2021/10/18 11:29:32;;;;;;;8.25;2.30;;;24.50;37.10;;;;;;6218943;28;20030;-73
2021/10/18 11:32:35;;;;;;;4.82;2.05;;;24.80;35.80;;;;;;6221566;28;20042;-73
2021/10/18 11:35:36;;;;;;;3.33;1.80;;;25.00;35.50;;;;;;6204773;28;20073;-73
2021/10/18 11:38:37;;;;;;;3.78;2.20;;;25.40;34.50;;;;;;6222234;28;20056;-73
2021/10/18 11:42:13;;;;;;;4.70;2.15;;;25.70;33.90;;;;;;6222433;28;20467;-72
2021/10/18 11:45:36;;;;;;;4.07;2.08;;;26.00;33.60;;;;;;6219363;28;20034;-72
2021/10/18 11:48:37;;;;;;;5.80;2.38;;;26.40;33.30;;;;;;6219666;28;20096;-73
2021/10/18 11:51:39;;;;;;;5.78;2.22;;;26.90;32.90;;;;;;6236263;28;20045;-73
2021/10/18 11:54:45;;;;;;;6.97;2.50;;;27.20;31.90;;;;;;6218552;28;20041;-73
2021/10/18 11:57:48;;;;;;;2.65;1.95;;;27.30;31.30;;;;;;6220012;28;20030;-73
2021/10/18 12:00:59;;;;;;;3.42;2.00;;;27.20;31.60;;;;;;6219213;28;20366;-72
2021/10/18 12:04:00;;;;;;;4.90;1.85;;;27.20;31.70;;;;;;6219420;28;20053;-72
2021/10/18 12:07:01;;;;;;;7.10;2.25;;;27.30;31.70;;;;;;6218856;28;20080;-73
2021/10/18 12:10:31;;;;;;;5.07;2.13;;;27.50;31.20;;;;;;6219328;28;20042;-74
2021/10/18 12:13:37;;;;;;;13.10;2.20;;;27.80;30.30;;;;;;6193892;28;20034;-72
2021/10/18 12:16:38;;;;;;;3.63;2.20;;;28.10;30.10;;;;;;6187379;28;20053;-74
2021/10/18 12:19:39;;;;;;;3.05;2.10;;;28.50;29.90;;;;;;6193015;28;20459;-72
2021/10/18 12:23:00;;;;;;;9.68;3.05;;;29.10;29.00;;;;;;6192156;28;20042;-74
2021/10/18 12:26:16;;;;;;;6.20;2.80;;;29.60;28.20;;;;;;6192347;28;20046;-72
2021/10/18 12:29:19;;;;;;;4.50;2.60;;;29.80;27.60;;;;;;6176840;28;20399;-73
2021/10/18 12:32:20;;;;;;;3.97;2.22;;;29.90;27.20;;;;;;6193964;28;20042;-73
2021/10/18 12:35:21;;;;;;;3.22;1.95;;;29.50;27.50;;;;;;6161684;28;20069;-73
2021/10/18 12:38:26;;;;;;;3.42;1.70;;;28.40;28.00;;;;;;6177706;28;20046;-73
2021/10/18 12:41:27;;;;;;;1.83;1.33;;;27.50;28.70;;;;;;6177273;28;20030;-73
2021/10/18 12:44:33;;;;;;;3.58;1.90;;;26.70;29.10;;;;;;6177928;28;20360;-73
2021/10/18 12:47:36;;;;;;;4.22;1.85;;;26.10;29.50;;;;;;6173265;28;20498;-73
2021/10/18 12:50:40;;;;;;;6.70;1.55;;;25.60;30.30;;;;;;6207707;28;20030;-73
2021/10/18 12:53:41;;;;;;;5.53;1.85;;;25.10;30.90;;;;;;6217095;28;20085;-74
2021/10/18 12:56:41;;;;;;;6.47;1.48;;;24.80;31.60;;;;;;6220752;28;20042;-73
2021/10/18 13:00:09;;;;;;;2.58;1.70;;;24.50;32.00;;;;;;6218802;28;20115;-72
2021/10/18 13:03:10;;;;;;;7.35;1.90;;;24.30;32.60;;;;;;6217565;28;20041;-73
2021/10/18 13:06:16;;;;;;;3.03;2.00;;;24.10;32.90;;;;;;6218512;28;20040;-72
2021/10/18 13:09:17;;;;;;;2.65;1.52;;;23.90;33.20;;;;;;6217597;28;20388;-72
2021/10/18 13:12:18;;;;;;;3.63;1.80;;;23.70;33.30;;;;;;6219402;28;20030;-72
2021/10/18 13:15:19;;;;;;;3.50;1.50;;;23.50;33.40;;;;;;6219366;28;20124;-72
2021/10/18 13:18:21;;;;;;;4.03;1.77;;;23.40;33.70;;;;;;6219819;28;20045;-71
2021/10/18 13:21:21;;;;;;;5.28;2.00;;;23.30;33.90;;;;;;6218664;28;20033;-72
2021/10/18 13:24:22;;;;;;;2.85;1.67;;;23.20;34.10;;;;;;6221139;28;20030;-73
2021/10/18 13:27:23;;;;;;;2.92;1.90;;;23.10;34.30;;;;;;6219503;28;20414;-72
2021/10/18 13:30:25;;;;;;;7.78;3.63;;;23.10;34.50;;;;;;6217590;28;20030;-72
2021/10/18 13:33:26;;;;;;;2.90;1.80;;;23.00;34.40;;;;;;6202001;28;20401;-71
2021/10/18 13:36:27;;;;;;;3.15;2.00;;;22.90;34.60;;;;;;6219905;28;20117;-73
2021/10/18 13:39:28;;;;;;;5.15;2.10;;;22.80;34.80;;;;;;6219173;28;20123;-72
2021/10/18 13:42:29;;;;;;;5.72;2.05;;;22.90;34.80;;;;;;6218560;28;20451;-73
2021/10/18 13:45:31;;;;;;;2.75;1.60;;;22.80;34.80;;;;;;6219373;28;20057;-72
2021/10/18 13:48:32;;;;;;;3.83;1.77;;;22.80;34.80;;;;;;6219151;28;20033;-72
2021/10/18 13:51:33;;;;;;;5.40;1.77;;;22.90;34.80;;;;;;6219508;28;20430;-72
2021/10/18 13:54:34;;;;;;;2.72;1.63;;;22.90;34.90;;;;;;6206522;28;20069;-71
2021/10/18 13:57:36;;;;;;;7.18;3.72;;;23.00;35.00;;;;;;6234635;28;20128;-73
2021/10/18 14:00:37;;;;;;;6.38;2.05;;;23.00;34.90;;;;;;6218954;28;20129;-73
2021/10/18 14:03:38;;;;;;;3.13;1.73;;;23.10;35.10;;;;;;6220243;28;20458;-73
2021/10/18 14:06:41;;;;;;;2.47;1.65;;;23.10;35.10;;;;;;6219290;28;20049;-72
2021/10/18 14:09:43;;;;;;;2.67;1.90;;;23.20;35.20;;;;;;6219327;28;20034;-72
2021/10/18 14:12:44;;;;;;;7.95;1.98;;;23.20;35.20;;;;;;6220737;28;20439;-73
2021/10/18 14:15:45;;;;;;;4.00;1.70;;;23.30;35.20;;;;;;6219074;28;20126;-72
2021/10/18 14:18:46;;;;;;;4.63;1.73;;;23.30;35.30;;;;;;6220650;28;20030;-72
2021/10/18 14:21:47;;;;;;;6.15;1.95;;;23.40;35.30;;;;;;6222975;28;20034;-72
2021/10/18 14:24:48;;;;;;;3.45;1.60;;;23.40;35.30;;;;;;6225568;28;20053;-72
2021/10/18 14:27:49;;;;;;;6.50;1.95;;;23.50;35.40;;;;;;6223865;28;20117;-72
2021/10/18 14:30:50;;;;;;;7.97;2.22;;;23.50;35.50;;;;;;6224744;28;20034;-74
2021/10/18 14:33:50;;;;;;;4.35;2.30;;;23.50;35.50;;;;;;6224103;28;20045;-73
2021/10/18 14:36:52;;;;;;;5.22;1.85;;;23.50;35.50;;;;;;6224673;28;20046;-73
2021/10/18 14:39:53;;;;;;;3.67;2.00;;;23.60;35.60;;;;;;6217902;28;20041;-72
2021/10/18 14:42:54;;;;;;;9.05;2.28;;;23.60;35.60;;;;;;6224843;28;20041;-71
2021/10/18 14:45:55;;;;;;;3.30;2.00;;;23.60;35.50;;;;;;6217497;28;20048;-72
2021/10/18 14:48:56;;;;;;;7.07;2.53;;;23.60;35.40;;;;;;6223221;28;20030;-73
2021/10/18 14:51:57;;;;;;;14.60;2.58;;;23.50;35.40;;;;;;6222041;28;20068;-73
2021/10/18 14:54:59;;;;;;;5.22;2.38;;;23.50;35.40;;;;;;6224972;28;20103;-73
2021/10/18 14:57:59;;;;;;;3.55;2.20;;;23.50;35.50;;;;;;6222913;28;20026;-72
2021/10/18 15:01:00;;;;;;;4.05;2.22;;;23.50;35.50;;;;;;6222974;28;20098;-72
2021/10/18 15:04:04;;;;;;;4.15;1.98;;;23.40;35.50;;;;;;6224087;28;20029;-73
2021/10/18 15:07:05;;;;;;;2.33;1.80;;;23.40;35.50;;;;;;6224320;28;20077;-73
2021/10/18 15:10:06;;;;;;;4.07;1.80;;;23.20;35.60;;;;;;6223985;28;20450;-73
2021/10/18 15:13:08;;;;;;;6.90;2.65;;;23.30;35.80;;;;;;6223283;28;20038;-72
2021/10/18 15:16:08;;;;;;;5.35;1.77;;;23.30;35.90;;;;;;6223861;28;20053;-73
2021/10/18 15:19:13;;;;;;;3.78;2.15;;;23.30;36.00;;;;;;6222812;28;20056;-72
2021/10/18 15:22:18;;;;;;;3.70;2.17;;;23.20;36.10;;;;;;6223823;28;20038;-73
2021/10/18 15:25:19;;;;;;;9.70;2.58;;;23.10;36.20;;;;;;6224312;28;20034;-73
2021/10/18 15:28:20;;;;;;;5.80;2.30;;;23.10;36.90;;;;;;6220121;28;20034;-72
2021/10/18 15:31:21;;;;;;;6.78;2.97;;;23.10;36.50;;;;;;6221346;28;20052;-72
2021/10/18 15:34:22;;;;;;;6.10;3.20;;;23.10;36.60;;;;;;6206190;28;20375;-73
2021/10/18 15:37:22;;;;;;;7.40;3.10;;;23.10;36.60;;;;;;6222573;28;20133;-73
2021/10/18 15:40:23;;;;;;;5.03;2.65;;;23.00;36.80;;;;;;6223672;28;20049;-73
2021/10/18 15:43:24;;;;;;;5.30;2.20;;;23.00;37.00;;;;;;6222572;28;20034;-73
2021/10/18 15:46:25;;;;;;;3.30;2.45;;;22.90;37.10;;;;;;6222284;28;20339;-73
2021/10/18 15:49:26;;;;;;;4.95;2.55;;;22.80;37.10;;;;;;6221987;28;20037;-73
2021/10/18 15:52:27;;;;;;;6.57;2.47;;;22.80;37.30;;;;;;6222951;28;20046;-73
2021/10/18 15:55:28;;;;;;;4.97;2.47;;;22.80;37.50;;;;;;6238816;28;20064;-74
2021/10/18 15:58:30;;;;;;;4.22;2.75;;;22.70;37.60;;;;;;6238368;28;20041;-72
2021/10/18 16:01:31;;;;;;;9.52;3.58;;;22.70;37.80;;;;;;6222437;28;20037;-73
2021/10/18 16:04:32;;;;;;;6.85;3.28;;;22.60;37.90;;;;;;6222143;28;20029;-73
2021/10/18 16:07:34;;;;;;;5.38;2.92;;;22.50;38.20;;;;;;6222569;28;20463;-73
2021/10/18 16:10:35;;;;;;;4.60;2.63;;;22.50;38.50;;;;;;6221128;28;20057;-72
2021/10/18 16:13:36;;;;;;;6.60;3.20;;;22.40;38.80;;;;;;6221636;28;20443;-73
2021/10/18 16:16:38;;;;;;;10.88;3.15;;;22.30;39.10;;;;;;6202245;28;20043;-73
2021/10/18 16:19:40;;;;;;;7.47;2.35;;;22.20;39.90;;;;;;6222616;28;20360;-73
2021/10/18 16:22:42;;;;;;;4.80;2.42;;;22.00;40.60;;;;;;6222556;28;20029;-73
2021/10/18 16:29:59;;;;;;;10.65;3.42;;;21.70;41.20;;;;;;6223241;28;20030;-72
2021/10/18 16:33:00;;;;;;;12.68;3.00;;;21.60;41.30;;;;;;6223740;28;20030;-72
2021/10/18 16:36:01;;;;;;;10.68;3.30;;;21.50;41.50;;;;;;6223951;28;20092;-72
2021/10/18 16:39:03;;;;;;;10.75;3.10;;;21.40;41.80;;;;;;6224097;28;20049;-72
2021/10/18 16:42:04;;;;;;;8.25;3.03;;;21.40;42.30;;;;;;6239316;28;20026;-72
2021/10/18 16:45:07;;;;;;;5.97;2.95;;;21.30;42.80;;;;;;6224199;28;20367;-71
2021/10/18 16:48:08;;;;;;;9.57;3.08;;;21.20;43.30;;;;;;6222862;28;20410;-71
2021/10/18 16:51:09;;;;;;;6.72;2.67;;;21.10;43.70;;;;;;6222653;28;20042;-71
2021/10/18 16:54:10;;;;;;;8.27;2.80;;;21.00;43.80;;;;;;6222935;28;20171;-71
2021/10/18 16:57:11;;;;;;;6.65;3.00;;;20.90;43.90;;;;;;6226080;28;20045;-72
2021/10/18 17:00:14;;;;;;;18.58;6.43;;;20.90;44.00;;;;;;6224217;28;20034;-72